Time;durP1;ratioP1;P1;durP2;ratioP2;P2;SDS_P1;SDS_P2;PMS_P1;PMS_P2;Temp;Humidity;BMP_temperature;BMP_pressure;BME280_temperature;BME280_humidity;BME280_pressure;Samples;Min_cycle;Max_cycle;Signal;HPM_P1;HPM_P2
2023/10/17 00:01:17;;;;;;;3.83;2.50;;;;;;;;;;5050945;28;19908;-69
2023/10/17 00:03:44;;;;;;;5.30;3.10;;;;;;;;;;5051650;28;20049;-66
2023/10/17 00:06:13;;;;;;;4.82;3.13;;;;;;;;;;5052039;28;20043;-67
2023/10/17 00:08:39;;;;;;;3.35;2.70;;;;;;;;;;5051053;28;20071;-66
2023/10/17 00:11:32;;;;;;;4.32;3.20;;;;;;;;;;5044221;28;20056;-66
2023/10/17 00:14:01;;;;;;;4.93;2.92;;;;;;;;;;5047961;28;20049;-67
2023/10/17 00:16:33;;;;;;;6.88;3.53;;;;;;;;;;5050763;28;20075;-66
2023/10/17 00:19:04;;;;;;;5.90;2.63;;;;;;;;;;5050793;28;20052;-67
2023/10/17 00:21:32;;;;;;;4.50;2.85;;;;;;;;;;5048551;28;20036;-67
2023/10/17 00:23:59;;;;;;;4.47;3.13;;;;;;;;;;5050769;28;20048;-67
2023/10/17 00:26:26;;;;;;;6.70;3.00;;;;;;;;;;5050092;28;20099;-67
2023/10/17 00:28:53;;;;;;;6.47;3.33;;;;;;;;;;5050678;28;20492;-66
2023/10/17 00:31:21;;;;;;;6.90;3.50;;;;;;;;;;5049015;28;20037;-67
2023/10/17 00:33:57;;;;;;;6.45;3.33;;;;;;;;;;5046312;28;20036;-66
2023/10/17 00:36:23;;;;;;;6.30;3.60;;;;;;;;;;5048880;28;20470;-66
2023/10/17 00:38:49;;;;;;;3.35;2.80;;;;;;;;;;5050421;28;20017;-66
2023/10/17 00:41:29;;;;;;;5.45;3.35;;;;;;;;;;5049406;28;20025;-68
2023/10/17 00:43:55;;;;;;;4.47;3.22;;;;;;;;;;5050404;28;20028;-67
2023/10/17 00:46:21;;;;;;;4.65;3.20;;;;;;;;;;5047279;28;20029;-67
2023/10/17 00:48:48;;;;;;;5.40;3.63;;;;;;;;;;5048940;28;20496;-67
2023/10/17 00:51:19;;;;;;;4.70;3.50;;;;;;;;;;5050566;28;20032;-69
2023/10/17 00:53:46;;;;;;;6.30;3.83;;;;;;;;;;5050312;28;20469;-67
2023/10/17 00:56:13;;;;;;;4.30;3.17;;;;;;;;;;5052332;28;20141;-67
2023/10/17 00:58:39;;;;;;;5.03;3.63;;;;;;;;;;5051473;28;20024;-67
2023/10/17 01:01:20;;;;;;;6.68;4.15;;;;;;;;;;5050899;28;20025;-66
2023/10/17 01:03:48;;;;;;;4.40;3.28;;;;;;;;;;5049679;28;20024;-67
2023/10/17 01:06:36;;;;;;;8.30;3.85;;;;;;;;;;5050286;28;20016;-68
2023/10/17 01:09:17;;;;;;;8.20;4.30;;;;;;;;;;5048633;28;20033;-67
2023/10/17 01:11:44;;;;;;;5.68;3.58;;;;;;;;;;5049996;28;20029;-67
2023/10/17 01:14:10;;;;;;;6.43;3.35;;;;;;;;;;5050006;28;20021;-67
2023/10/17 01:16:36;;;;;;;5.35;3.92;;;;;;;;;;5049666;28;20088;-67
2023/10/17 01:19:05;;;;;;;6.50;3.72;;;;;;;;;;5046863;28;21579;-66
2023/10/17 01:21:31;;;;;;;5.85;3.40;;;;;;;;;;5048839;28;20025;-66
2023/10/17 01:23:57;;;;;;;4.47;3.40;;;;;;;;;;5049549;28;20025;-67
2023/10/17 01:26:23;;;;;;;9.95;4.20;;;;;;;;;;5049631;28;20035;-66
2023/10/17 01:28:50;;;;;;;8.60;3.45;;;;;;;;;;5048837;28;20020;-67
2023/10/17 01:31:22;;;;;;;7.32;3.83;;;;;;;;;;5049558;28;20025;-67
2023/10/17 01:33:49;;;;;;;6.97;4.00;;;;;;;;;;5049290;28;20044;-66
2023/10/17 01:36:16;;;;;;;7.28;3.90;;;;;;;;;;5050189;28;20067;-67
2023/10/17 01:38:43;;;;;;;7.22;4.03;;;;;;;;;;5050120;28;20025;-67
2023/10/17 01:41:13;;;;;;;6.00;3.72;;;;;;;;;;5050034;28;20056;-66
2023/10/17 01:43:45;;;;;;;5.18;3.88;;;;;;;;;;5038782;28;20025;-66
2023/10/17 01:46:15;;;;;;;5.63;3.55;;;;;;;;;;5050337;28;20028;-66
2023/10/17 01:48:46;;;;;;;9.00;3.83;;;;;;;;;;5049641;28;20059;-66
2023/10/17 01:51:15;;;;;;;5.85;3.42;;;;;;;;;;5045738;28;20052;-66
2023/10/17 01:53:43;;;;;;;5.45;3.42;;;;;;;;;;5049084;28;20021;-66
2023/10/17 01:56:18;;;;;;;6.05;3.60;;;;;;;;;;5050707;28;20013;-65
2023/10/17 01:58:50;;;;;;;4.72;3.50;;;;;;;;;;5049915;28;20017;-68
2023/10/17 02:01:24;;;;;;;6.13;3.95;;;;;;;;;;5049295;28;20104;-68
2023/10/17 02:03:52;;;;;;;6.72;3.72;;;;;;;;;;5049661;28;20021;-66
2023/10/17 02:06:19;;;;;;;6.93;3.80;;;;;;;;;;5049922;28;20025;-67
2023/10/17 02:08:46;;;;;;;4.10;3.40;;;;;;;;;;5049816;28;20024;-66
2023/10/17 02:11:23;;;;;;;6.10;4.07;;;;;;;;;;5048130;28;20037;-66
2023/10/17 02:13:50;;;;;;;5.72;3.55;;;;;;;;;;5049920;28;20022;-66
2023/10/17 02:16:17;;;;;;;9.45;4.15;;;;;;;;;;5053379;28;20025;-67
2023/10/17 02:18:44;;;;;;;6.20;3.85;;;;;;;;;;5053771;28;20410;-65
2023/10/17 02:21:12;;;;;;;7.95;3.95;;;;;;;;;;5052209;28;20354;-68
2023/10/17 02:23:48;;;;;;;8.00;5.13;;;;;;;;;;5052935;28;20041;-68
2023/10/17 02:26:15;;;;;;;9.20;3.92;;;;;;;;;;5053841;28;20036;-67
2023/10/17 02:28:47;;;;;;;6.70;4.40;;;;;;;;;;5053182;28;20083;-66
2023/10/17 02:31:17;;;;;;;6.43;4.20;;;;;;;;;;5051960;28;20032;-68
2023/10/17 02:33:43;;;;;;;6.85;4.25;;;;;;;;;;5050578;28;20040;-67
2023/10/17 02:36:12;;;;;;;6.90;3.95;;;;;;;;;;5053807;28;20440;-67
2023/10/17 02:38:42;;;;;;;10.40;4.10;;;;;;;;;;5052435;28;20028;-67
2023/10/17 02:41:09;;;;;;;7.50;4.00;;;;;;;;;;5052614;28;20025;-67
2023/10/17 02:43:37;;;;;;;5.25;4.10;;;;;;;;;;5051877;28;20021;-67
2023/10/17 02:46:07;;;;;;;6.18;3.50;;;;;;;;;;5053529;28;20009;-67
2023/10/17 02:48:42;;;;;;;8.27;4.10;;;;;;;;;;5051984;28;20021;-67
2023/10/17 02:54:05;;;;;;;7.40;4.50;;;;;;;;;;5031828;28;20048;-67
2023/10/17 02:56:38;;;;;;;9.35;4.25;;;;;;;;;;5052212;28;20517;-66
2023/10/17 02:59:10;;;;;;;6.70;4.50;;;;;;;;;;5045778;28;20048;-67
2023/10/17 03:01:37;;;;;;;9.15;5.15;;;;;;;;;;5047458;28;20096;-66
2023/10/17 03:04:07;;;;;;;8.85;4.90;;;;;;;;;;5052834;28;20096;-67
2023/10/17 03:06:34;;;;;;;11.07;4.70;;;;;;;;;;5052451;28;20020;-66
2023/10/17 03:09:15;;;;;;;7.82;5.28;;;;;;;;;;5049011;28;20492;-67
2023/10/17 03:11:50;;;;;;;9.75;4.80;;;;;;;;;;5053097;28;20036;-66
2023/10/17 03:14:25;;;;;;;5.53;4.32;;;;;;;;;;5052228;28;20420;-69
2023/10/17 03:16:54;;;;;;;9.73;4.93;;;;;;;;;;5046826;28;20025;-68
2023/10/17 03:19:28;;;;;;;6.55;4.47;;;;;;;;;;5051376;28;20017;-66
2023/10/17 03:21:54;;;;;;;7.38;4.43;;;;;;;;;;5050748;28;20485;-67
2023/10/17 03:24:38;;;;;;;7.85;4.90;;;;;;;;;;5051818;28;20473;-67
2023/10/17 03:27:04;;;;;;;6.00;4.40;;;;;;;;;;5051131;28;20450;-67
2023/10/17 03:29:35;;;;;;;6.00;4.07;;;;;;;;;;5038606;28;20040;-66
2023/10/17 03:32:04;;;;;;;8.18;4.90;;;;;;;;;;5046878;28;20017;-67
2023/10/17 03:34:37;;;;;;;7.70;5.05;;;;;;;;;;5057906;28;20429;-67
2023/10/17 03:39:52;;;;;;;6.50;4.78;;;;;;;;;;5043955;28;20032;-67
2023/10/17 03:45:13;;;;;;;8.45;4.60;;;;;;;;;;5068630;28;20477;-66
2023/10/17 03:47:39;;;;;;;6.78;4.72;;;;;;;;;;5052607;28;20103;-66
2023/10/17 03:50:08;;;;;;;6.32;4.68;;;;;;;;;;5050827;28;20108;-66
2023/10/17 03:52:35;;;;;;;8.38;5.05;;;;;;;;;;5057799;28;20020;-67
2023/10/17 03:55:01;;;;;;;7.70;4.82;;;;;;;;;;5050537;28;20045;-67
2023/10/17 03:57:28;;;;;;;10.07;5.22;;;;;;;;;;5056271;28;20484;-66
2023/10/17 03:59:57;;;;;;;8.95;5.07;;;;;;;;;;5053681;28;20025;-66
2023/10/17 04:02:24;;;;;;;8.48;5.22;;;;;;;;;;5068143;28;20028;-66
2023/10/17 04:04:57;;;;;;;7.13;4.88;;;;;;;;;;5059067;28;20033;-66
2023/10/17 04:07:26;;;;;;;11.50;5.97;;;;;;;;;;5055246;28;20389;-66
2023/10/17 04:09:53;;;;;;;8.23;5.47;;;;;;;;;;5063940;28;20029;-66
2023/10/17 04:12:37;;;;;;;8.90;5.38;;;;;;;;;;5063288;28;20090;-66
2023/10/17 04:15:04;;;;;;;6.70;4.95;;;;;;;;;;5060872;28;20033;-66
2023/10/17 04:17:36;;;;;;;8.00;5.22;;;;;;;;;;5058377;28;20039;-67
2023/10/17 04:20:11;;;;;;;8.00;5.28;;;;;;;;;;5066590;28;20029;-66
2023/10/17 04:22:43;;;;;;;8.02;5.03;;;;;;;;;;5051753;28;20029;-67
2023/10/17 04:27:54;;;;;;;6.82;4.90;;;;;;;;;;5039434;28;20028;-67
2023/10/17 04:30:29;;;;;;;8.27;4.97;;;;;;;;;;5051680;28;20474;-66
2023/10/17 04:33:08;;;;;;;9.07;5.45;;;;;;;;;;5051482;28;20060;-66
2023/10/17 04:35:34;;;;;;;8.88;5.50;;;;;;;;;;5064487;28;20016;-66
2023/10/17 04:38:46;;;;;;;10.65;5.53;;;;;;;;;;5070349;28;20074;-66
2023/10/17 04:41:11;;;;;;;11.13;5.93;;;;;;;;;;5049515;28;20101;-66
2023/10/17 04:43:55;;;;;;;9.70;5.63;;;;;;;;;;5059544;28;20075;-66
2023/10/17 04:46:27;;;;;;;10.20;5.55;;;;;;;;;;5051748;28;20101;-66
2023/10/17 04:48:57;;;;;;;10.75;5.70;;;;;;;;;;5055737;28;20381;-66
2023/10/17 04:51:26;;;;;;;11.23;5.97;;;;;;;;;;5056694;28;20079;-66
2023/10/17 04:53:55;;;;;;;11.55;6.15;;;;;;;;;;5065510;28;20035;-66
2023/10/17 04:56:24;;;;;;;12.07;6.63;;;;;;;;;;5060510;28;20027;-67
2023/10/17 04:58:53;;;;;;;11.77;6.13;;;;;;;;;;5059480;28;20461;-67
2023/10/17 05:05:38;;;;;;;11.65;6.35;;;;;;;;;;5040362;28;20028;-67
2023/10/17 06:17:48;;;;;;;11.70;6.72;;;;;;;;;;5048998;28;20024;-66
2023/10/17 06:20:19;;;;;;;15.82;7.75;;;;;;;;;;5053562;28;20382;-67
2023/10/17 06:23:23;;;;;;;17.50;7.50;;;;;;;;;;5053293;28;20100;-66
2023/10/17 06:28:34;;;;;;;11.23;6.60;;;;;;;;;;5052591;28;20025;-67
2023/10/17 06:34:00;;;;;;;10.48;5.90;;;;;;;;;;5028699;28;20045;-64
2023/10/17 06:36:29;;;;;;;11.05;5.88;;;;;;;;;;5052962;28;20428;-65
2023/10/17 06:38:55;;;;;;;11.63;6.03;;;;;;;;;;5053382;28;20025;-65
2023/10/17 06:41:27;;;;;;;10.02;6.43;;;;;;;;;;5052884;28;20092;-65
2023/10/17 06:43:58;;;;;;;10.30;6.10;;;;;;;;;;5053324;28;20075;-65
2023/10/17 06:46:30;;;;;;;12.13;5.70;;;;;;;;;;5051252;28;20025;-65
2023/10/17 06:49:06;;;;;;;11.88;6.45;;;;;;;;;;5053442;28;20036;-66
2023/10/17 06:51:56;;;;;;;11.40;6.43;;;;;;;;;;5046574;28;20036;-66
2023/10/17 06:54:25;;;;;;;11.32;6.45;;;;;;;;;;5043691;28;20036;-66
2023/10/17 06:56:55;;;;;;;11.23;6.10;;;;;;;;;;5052099;28;20104;-66
2023/10/17 06:59:35;;;;;;;9.90;5.90;;;;;;;;;;5047762;28;20117;-66
2023/10/17 07:02:10;;;;;;;;;;;;;;;;;;5051443;28;20100;-66
2023/10/17 07:04:37;;;;;;;10.45;6.13;;;;;;;;;;5043926;28;19909;-65
2023/10/17 07:07:03;;;;;;;12.05;6.07;;;;;;;;;;5046993;28;20021;-64
2023/10/17 07:09:37;;;;;;;10.80;5.55;;;;;;;;;;5042168;28;20029;-66
2023/10/17 07:12:04;;;;;;;9.07;6.03;;;;;;;;;;5052369;28;20029;-65
2023/10/17 07:14:30;;;;;;;13.85;6.95;;;;;;;;;;5052486;28;20053;-66
2023/10/17 07:17:17;;;;;;;10.43;6.13;;;;;;;;;;5046665;28;20055;-66
2023/10/17 07:22:12;;;;;;;9.23;6.30;;;;;;;;;;5052577;28;20166;-66
2023/10/17 07:24:42;;;;;;;11.45;6.05;;;;;;;;;;5052534;28;20033;-65
2023/10/17 07:27:11;;;;;;;8.90;5.78;;;;;;;;;;5052391;28;20374;-65
2023/10/17 07:29:37;;;;;;;9.70;6.03;;;;;;;;;;5046538;28;20049;-64
2023/10/17 07:32:15;;;;;;;9.38;5.72;;;;;;;;;;5050898;28;20029;-64
2023/10/17 07:34:43;;;;;;;9.60;5.97;;;;;;;;;;5061352;28;20056;-66
2023/10/17 07:42:32;;;;;;;10.23;5.97;;;;;;;;;;5060274;28;20047;-66
2023/10/17 07:45:04;;;;;;;8.82;5.78;;;;;;;;;;5068707;28;20025;-66
2023/10/17 07:47:33;;;;;;;14.43;7.50;;;;;;;;;;5065914;28;20021;-66
2023/10/17 07:50:00;;;;;;;9.65;5.90;;;;;;;;;;5054956;28;20125;-66
2023/10/17 07:52:30;;;;;;;12.25;5.85;;;;;;;;;;5057147;28;20021;-67
2023/10/17 07:57:43;;;;;;;11.05;6.25;;;;;;;;;;5050688;28;20091;-66
2023/10/17 08:00:33;;;;;;;11.00;6.20;;;;;;;;;;5057709;28;20029;-66
2023/10/17 08:03:19;;;;;;;13.70;6.50;;;;;;;;;;5052411;28;20060;-66
2023/10/17 08:09:06;;;;;;;12.88;6.65;;;;;;;;;;5060990;28;20040;-66
2023/10/17 08:11:28;;;;;;;18.02;6.70;;;;;;;;;;5059584;28;20044;-65
2023/10/17 08:13:55;;;;;;;11.43;6.78;;;;;;;;;;5064446;28;20479;-66
2023/10/17 08:16:26;;;;;;;13.65;6.70;;;;;;;;;;5056770;28;20510;-66
2023/10/17 08:21:48;;;;;;;17.90;7.75;;;;;;;;;;5065174;28;19916;-66
2023/10/17 08:24:14;;;;;;;21.40;7.78;;;;;;;;;;5056664;28;20515;-67
2023/10/17 08:26:42;;;;;;;11.60;7.72;;;;;;;;;;5056197;28;20037;-66
2023/10/17 08:29:11;;;;;;;24.23;7.75;;;;;;;;;;5043982;28;20474;-66
2023/10/17 08:31:44;;;;;;;11.65;6.90;;;;;;;;;;5042690;28;20037;-65
2023/10/17 08:34:12;;;;;;;12.00;6.78;;;;;;;;;;5055114;28;20485;-67
2023/10/17 08:42:05;;;;;;;10.30;7.40;;;;;;;;;;5049614;28;20472;-66
2023/10/17 08:44:37;;;;;;;12.20;7.38;;;8.70;99.90;;;;;;5051766;28;20029;-66
2023/10/17 08:47:03;;;;;;;13.15;7.55;;;8.90;99.90;;;;;;5065144;28;20487;-67
2023/10/17 08:49:31;;;;;;;11.90;7.35;;;8.90;99.90;;;;;;5054300;28;20032;-66
2023/10/17 08:51:58;;;;;;;14.35;8.43;;;8.90;99.90;;;;;;5060127;28;20036;-66
2023/10/17 08:54:29;;;;;;;11.07;7.93;;;9.00;99.90;;;;;;5068097;28;20021;-66
2023/10/17 08:56:59;;;;;;;12.40;8.18;;;9.00;99.90;;;;;;5058330;28;20032;-66
2023/10/17 09:02:29;;;;;;;14.52;9.95;;;9.10;99.90;;;;;;4990130;28;20039;-65
2023/10/17 09:05:01;;;;;;;16.75;9.23;;;9.20;99.90;;;;;;5047528;28;20372;-65
2023/10/17 09:07:43;;;;;;;15.23;9.02;;;9.10;99.90;;;;;;5051225;28;20025;-65
2023/10/17 09:10:37;;;;;;;18.15;9.10;;;9.20;99.90;;;;;;5052488;28;20128;-66
2023/10/17 09:15:50;;;;;;;12.38;8.05;;;;;;;;;;5046203;28;20400;-66
2023/10/17 09:18:27;;;;;;;12.98;8.13;;;;;;;;;;5053409;28;20031;-68
2023/10/17 09:20:54;;;;;;;14.88;9.43;;;;;;;;;;5071503;28;20032;-66
2023/10/17 09:23:28;;;;;;;12.93;9.18;;;;;;;;;;5067017;28;20024;-65
2023/10/17 09:25:54;;;;;;;13.90;9.50;;;;;;;;;;5059840;28;20113;-66
2023/10/17 09:28:22;;;;;;;14.70;9.65;;;;;;;;;;5058126;28;20044;-66
2023/10/17 09:31:06;;;;;;;17.00;10.38;;;;;;;;;;5053046;28;20044;-66
2023/10/17 09:33:33;;;;;;;14.52;9.77;;;;;;;;;;5056473;28;20053;-66
2023/10/17 09:35:59;;;;;;;15.43;10.40;;;;;;;;;;5061215;28;20021;-66
2023/10/17 09:38:27;;;;;;;21.25;10.80;;;;;;;;;;5064996;28;20029;-66
2023/10/17 09:40:53;;;;;;;12.30;9.32;;;;;;;;;;5059894;28;20411;-66
2023/10/17 09:43:19;;;;;;;15.13;10.85;;;;;;;;;;5060921;28;20477;-66
2023/10/17 09:45:47;;;;;;;13.35;8.93;;;;;;;;;;5060660;28;20067;-67
2023/10/17 09:48:14;;;;;;;17.77;11.15;;;;;;;;;;5044912;28;20021;-68
2023/10/17 09:50:45;;;;;;;18.55;10.20;;;;;;;;;;5059265;28;20098;-65
2023/10/17 09:53:17;;;;;;;15.90;10.90;;;;;;;;;;5058978;28;20050;-65
2023/10/17 09:55:47;;;;;;;14.15;10.65;;;;;;;;;;5063779;28;20021;-65
2023/10/17 09:58:17;;;;;;;14.20;10.60;;;;;;;;;;5051009;28;20021;-66
2023/10/17 10:00:46;;;;;;;20.73;10.70;;;;;;;;;;5055337;28;20469;-66
2023/10/17 10:03:13;;;;;;;14.15;10.85;;;;;;;;;;5054464;28;20044;-66
2023/10/17 10:05:40;;;;;;;14.27;9.60;;;;;;;;;;5053743;28;20014;-65
2023/10/17 10:08:26;;;;;;;11.60;8.73;;;;;;;;;;5056607;28;20028;-66
2023/10/17 10:10:52;;;;;;;14.60;9.20;;;;;;;;;;5064545;28;20485;-65
2023/10/17 10:13:19;;;;;;;22.35;11.27;;;;;;;;;;5051843;28;20026;-66
2023/10/17 10:16:04;;;;;;;15.38;10.35;;;;;;;;;;5055629;28;20036;-65
2023/10/17 10:18:35;;;;;;;17.35;10.55;;;;;;;;;;5046840;28;20021;-65
2023/10/17 10:21:02;;;;;;;17.48;10.95;;;;;;;;;;5066604;28;20036;-65
2023/10/17 10:23:31;;;;;;;19.27;11.55;;;;;;;;;;5050986;28;20386;-65
2023/10/17 10:26:13;;;;;;;14.50;11.30;;;;;;;;;;5042443;28;20035;-65
2023/10/17 10:28:40;;;;;;;15.05;10.57;;;;;;;;;;5034137;28;20029;-65
2023/10/17 10:31:29;;;;;;;22.65;11.10;;;;;;;;;;5051596;28;20032;-65
2023/10/17 10:34:00;;;;;;;18.08;10.93;;;;;;;;;;5053905;28;20505;-65
2023/10/17 10:36:26;;;;;;;16.00;10.00;;;;;;;;;;5052030;28;20033;-65
2023/10/17 10:38:54;;;;;;;19.38;10.65;;;;;;;;;;5065158;28;20021;-67
2023/10/17 10:41:22;;;;;;;19.08;10.05;;;;;;;;;;5054931;28;20029;-66
2023/10/17 10:43:48;;;;;;;15.48;11.10;;;;;;;;;;5062359;28;20082;-67
2023/10/17 10:46:15;;;;;;;15.55;11.15;;;;;;;;;;5056041;28;20037;-68
2023/10/17 10:48:51;;;;;;;15.65;11.60;;;;;;;;;;5055377;28;20131;-67
2023/10/17 10:51:17;;;;;;;15.98;11.15;;;;;;;;;;5060766;28;20251;-68
2023/10/17 10:53:54;;;;;;;16.58;10.75;;;;;;;;;;5067082;28;20035;-66
2023/10/17 10:56:22;;;;;;;19.25;11.07;;;;;;;;;;5058130;28;20128;-67
2023/10/17 10:58:51;;;;;;;22.63;11.35;;;;;;;;;;5059090;28;20032;-67
2023/10/17 11:01:20;;;;;;;17.08;10.90;;;;;;;;;;5060236;28;20041;-68
2023/10/17 11:03:47;;;;;;;21.90;11.00;;;;;;;;;;5066306;28;20465;-67
2023/10/17 11:06:23;;;;;;;18.33;10.43;;;;;;;;;;5053377;28;20426;-68
2023/10/17 11:08:49;;;;;;;16.35;10.00;;;;;;;;;;5053177;28;20017;-67
2023/10/17 11:11:15;;;;;;;16.70;11.15;;;;;;;;;;5063828;28;20029;-68
2023/10/17 11:13:45;;;;;;;19.52;10.88;;;;;;;;;;5067666;28;20150;-66
2023/10/17 11:16:12;;;;;;;16.83;10.88;;;;;;;;;;5057529;28;20031;-67
2023/10/17 11:18:39;;;;;;;12.95;9.15;;;;;;;;;;5067044;28;20032;-67
2023/10/17 11:21:05;;;;;;;13.18;9.60;;;;;;;;;;5070837;28;20047;-67
2023/10/17 11:23:33;;;;;;;14.95;9.75;;;;;;;;;;5056222;28;20075;-66
2023/10/17 11:26:03;;;;;;;14.70;10.02;;;;;;;;;;5050924;28;20021;-66
2023/10/17 11:28:30;;;;;;;13.60;9.77;;;;;;;;;;5060086;28;20037;-66
2023/10/17 11:30:58;;;;;;;15.10;10.07;;;;;;;;;;5054381;28;20036;-65
2023/10/17 11:33:37;;;;;;;17.77;10.55;;;;;;;;;;5054790;28;20048;-65
2023/10/17 11:36:12;;;;;;;15.35;10.35;;;;;;;;;;5059823;28;20033;-66
2023/10/17 11:38:40;;;;;;;21.42;10.82;;;;;;;;;;5050677;28;20052;-66
2023/10/17 11:41:06;;;;;;;13.30;9.85;;;;;;;;;;5061245;28;20031;-67
2023/10/17 11:43:50;;;;;;;11.80;9.10;;;;;;;;;;5060244;28;20029;-66
2023/10/17 11:46:29;;;;;;;13.50;10.73;;;;;;;;;;5054895;28;20021;-69
2023/10/17 11:49:20;;;;;;;14.82;10.63;;;;;;;;;;5053289;28;20082;-66
2023/10/17 11:51:49;;;;;;;12.18;9.18;;;;;;;;;;5056783;28;20029;-68
2023/10/17 11:54:15;;;;;;;13.38;9.93;;;;;;;;;;5070135;28;20473;-68
2023/10/17 11:56:41;;;;;;;15.68;9.90;;;;;;;;;;5059327;28;20104;-66
2023/10/17 11:59:07;;;;;;;17.52;11.27;;;;;;;;;;5058818;28;20042;-67
2023/10/17 12:01:34;;;;;;;14.95;9.82;;;;;;;;;;5061776;28;20618;-66
2023/10/17 12:04:05;;;;;;;14.75;9.85;;;;;;;;;;5051486;28;20028;-67
2023/10/17 12:06:31;;;;;;;13.98;9.80;;;;;;;;;;5047178;28;20034;-66
2023/10/17 12:08:57;;;;;;;14.30;9.68;;;;;;;;;;5061089;28;20443;-66
2023/10/17 12:11:26;;;;;;;13.18;9.65;;;;;;;;;;5065128;28;20037;-68
2023/10/17 12:13:52;;;;;;;13.85;9.57;;;;;;;;;;5045673;28;20025;-65
2023/10/17 12:16:23;;;;;;;13.35;9.57;;;;;;;;;;5061946;28;20100;-65
2023/10/17 12:18:49;;;;;;;;;;;13.50;99.90;;;;;;5068317;28;20157;-65
2023/10/17 12:21:15;;;;;;;13.65;9.30;;;13.80;99.90;;;;;;5056988;28;19955;-68
2023/10/17 12:23:41;;;;;;;12.70;9.82;;;14.10;99.90;;;;;;5050742;28;20036;-65
2023/10/17 12:26:13;;;;;;;10.95;8.38;;;14.70;99.90;;;;;;5065018;28;20028;-66
2023/10/17 12:28:44;;;;;;;15.60;10.48;;;;;;;;;;5053804;28;20112;-66
2023/10/17 12:31:16;;;;;;;13.38;9.45;;;;;;;;;;5058924;28;20032;-67
2023/10/17 12:33:45;;;;;;;12.82;9.60;;;;;;;;;;5058589;28;20067;-66
2023/10/17 12:36:12;;;;;;;11.55;9.13;;;;;;;;;;5057791;28;20074;-66
2023/10/17 12:38:39;;;;;;;11.80;8.98;;;;;;;;;;5053268;28;20111;-66
2023/10/17 12:41:06;;;;;;;15.50;10.45;;;;;;;;;;5056502;28;20021;-66
2023/10/17 12:43:35;;;;;;;14.55;10.10;;;;;;;;;;5050488;28;20029;-66
2023/10/17 12:46:02;;;;;;;13.43;9.45;;;;;;;;;;5064239;28;20096;-66
2023/10/17 12:48:29;;;;;;;14.43;10.40;;;;;;;;;;5054731;28;20049;-66
2023/10/17 12:50:55;;;;;;;15.38;10.55;;;;;;;;;;5064049;28;20078;-68
2023/10/17 12:53:22;;;;;;;11.15;8.98;;;;;;;;;;5052082;28;20098;-66
2023/10/17 12:55:49;;;;;;;14.85;8.32;;;;;;;;;;5056556;28;20539;-66
2023/10/17 12:58:18;;;;;;;11.05;8.13;;;;;;;;;;5053248;28;20087;-68
2023/10/17 13:00:49;;;;;;;13.63;8.88;;;;;;;;;;5061864;28;20036;-67
2023/10/17 13:03:16;;;;;;;11.68;8.65;;;;;;;;;;5049316;28;20040;-68
2023/10/17 13:05:43;;;;;;;14.38;9.35;;;;;;;;;;5055418;28;20013;-66
2023/10/17 13:08:10;;;;;;;10.95;8.05;;;;;;;;;;5054927;28;20024;-67
2023/10/17 13:10:37;;;;;;;16.20;9.48;;;;;;;;;;5065347;28;20056;-66
2023/10/17 13:13:03;;;;;;;13.57;9.60;;;;;;;;;;5055355;28;20023;-66
2023/10/17 13:15:30;;;;;;;11.38;8.85;;;;;;;;;;5050616;28;20032;-66
2023/10/17 13:18:00;;;;;;;12.00;8.95;;;;;;;;;;5062366;28;20025;-66
2023/10/17 13:20:32;;;;;;;13.27;9.13;;;;;;;;;;5059354;28;20104;-65
2023/10/17 13:23:04;;;;;;;14.20;9.88;;;;;;;;;;5051598;28;20029;-65
2023/10/17 13:25:38;;;;;;;12.30;8.70;;;;;;;;;;5061732;28;20132;-65
2023/10/17 13:28:05;;;;;;;12.38;9.43;;;;;;;;;;5051064;28;20025;-66
2023/10/17 13:30:32;;;;;;;11.32;8.65;;;;;;;;;;5051165;28;20563;-66
2023/10/17 13:32:58;;;;;;;16.45;9.57;;;;;;;;;;5049752;28;20116;-66
2023/10/17 13:35:25;;;;;;;14.20;9.25;;;;;;;;;;5063262;28;20070;-66
2023/10/17 13:37:51;;;;;;;11.15;7.82;;;13.50;99.90;;;;;;5049458;28;20052;-66
2023/10/17 13:40:19;;;;;;;13.18;9.10;;;13.50;99.90;;;;;;5058529;28;20072;-68
2023/10/17 13:42:50;;;;;;;11.70;8.20;;;13.50;99.90;;;;;;5059438;28;20492;-66
2023/10/17 13:45:16;;;;;;;12.48;8.95;;;13.50;99.90;;;;;;5068058;28;20032;-68
2023/10/17 13:47:42;;;;;;;14.95;9.30;;;13.50;99.90;;;;;;5055939;28;20033;-66
2023/10/17 13:50:13;;;;;;;13.77;9.02;;;13.50;99.90;;;;;;5059493;28;20024;-66
2023/10/17 13:52:41;;;;;;;13.43;9.93;;;;;;;;;;5061926;28;20032;-66
2023/10/17 13:55:09;;;;;;;12.10;9.27;;;;;;;;;;5058739;28;20100;-65
2023/10/17 13:57:36;;;;;;;14.57;9.55;;;;;;;;;;5046550;28;20025;-66
2023/10/17 14:00:05;;;;;;;13.10;8.45;;;;;;;;;;5061088;28;20075;-66
2023/10/17 14:02:32;;;;;;;11.32;8.20;;;13.50;99.90;;;;;;5047768;28;20051;-67
2023/10/17 14:04:57;;;;;;;12.60;9.48;;;13.40;99.90;;;;;;5036325;28;20033;-65
2023/10/17 14:07:23;;;;;;;12.43;9.25;;;13.50;99.90;;;;;;5043508;28;20037;-65
2023/10/17 14:09:55;;;;;;;14.38;9.27;;;13.50;99.90;;;;;;5050226;28;20029;-65
2023/10/17 14:12:21;;;;;;;17.80;9.38;;;13.50;99.90;;;;;;5047614;28;20045;-65
2023/10/17 14:14:48;;;;;;;12.63;8.48;;;;;;;;;;5045287;28;20039;-65
2023/10/17 14:17:14;;;;;;;12.80;9.07;;;13.50;99.90;;;;;;5044587;28;20071;-68
2023/10/17 14:19:45;;;;;;;11.88;8.00;;;13.40;99.90;;;;;;5061218;28;20025;-68
2023/10/17 14:27:29;;;;;;;11.88;9.00;;;13.40;99.90;;;;;;5051076;28;20662;-69
2023/10/17 14:29:59;;;;;;;11.95;8.80;;;13.40;99.90;;;;;;5062970;28;20064;-65
2023/10/17 14:32:26;;;;;;;12.50;8.55;;;13.40;99.90;;;;;;5054954;28;20504;-67
2023/10/17 14:34:52;;;;;;;12.45;8.95;;;13.30;99.90;;;;;;5053168;28;20040;-66
2023/10/17 14:37:19;;;;;;;12.60;8.38;;;13.40;99.90;;;;;;5053985;28;20059;-66
2023/10/17 14:39:44;;;;;;;9.77;7.50;;;13.40;99.90;;;;;;5055451;28;20032;-66
2023/10/17 14:42:19;;;;;;;11.20;8.18;;;13.40;99.90;;;;;;5052315;28;20044;-66
2023/10/17 14:44:46;;;;;;;9.65;7.47;;;13.40;99.90;;;;;;5061018;28;20115;-67
2023/10/17 14:47:14;;;;;;;13.65;9.55;;;13.40;99.90;;;;;;5064780;28;20028;-68
2023/10/17 14:49:40;;;;;;;13.43;8.75;;;13.60;99.90;;;;;;5059684;28;20037;-67
2023/10/17 14:52:07;;;;;;;13.70;9.05;;;13.50;99.90;;;;;;5048929;28;20469;-65
2023/10/17 14:54:34;;;;;;;14.68;8.65;;;13.50;99.90;;;;;;5056875;28;20119;-67
2023/10/17 14:57:06;;;;;;;13.52;9.10;;;13.50;99.90;;;;;;5052168;28;20025;-65
2023/10/17 14:59:34;;;;;;;12.70;8.05;;;13.50;99.90;;;;;;5066104;28;20466;-66
2023/10/17 15:02:02;;;;;;;12.60;8.93;;;13.40;99.90;;;;;;5053435;28;20025;-67
2023/10/17 15:04:28;;;;;;;12.05;7.50;;;13.30;99.90;;;;;;5064391;28;20453;-65
2023/10/17 15:06:54;;;;;;;10.45;7.22;;;;;;;;;;5060721;28;20108;-65
2023/10/17 15:09:21;;;;;;;9.88;7.28;;;;;;;;;;5068255;28;20070;-68
2023/10/17 15:11:48;;;;;;;10.90;7.88;;;13.10;99.90;;;;;;5056258;28;20040;-67
2023/10/17 15:14:15;;;;;;;8.93;7.03;;;13.10;99.90;;;;;;5055459;28;20497;-68
2023/10/17 15:16:41;;;;;;;11.90;7.63;;;;;;;;;;5058860;28;20578;-67
2023/10/17 15:19:08;;;;;;;8.48;6.38;;;;;;;;;;5064703;28;20082;-65
2023/10/17 15:21:35;;;;;;;9.18;6.07;;;;;;;;;;5049174;28;20021;-66
2023/10/17 15:24:02;;;;;;;10.90;6.30;;;;;;;;;;5055198;28;20447;-66
2023/10/17 15:26:29;;;;;;;8.18;6.47;;;;;;;;;;5056638;28;20104;-67
2023/10/17 15:28:56;;;;;;;8.32;6.97;;;;;;;;;;5044061;28;20082;-67
2023/10/17 15:31:27;;;;;;;9.43;7.25;;;;;;;;;;5051324;28;20037;-67
2023/10/17 15:33:55;;;;;;;10.90;8.13;;;;;;;;;;5063177;28;20056;-67
2023/10/17 15:36:25;;;;;;;10.68;7.25;;;;;;;;;;5060010;28;20036;-68
2023/10/17 15:38:53;;;;;;;11.35;7.45;;;;;;;;;;5054597;28;20108;-66
2023/10/17 15:41:21;;;;;;;11.00;7.40;;;;;;;;;;5046002;28;20036;-67
2023/10/17 15:43:48;;;;;;;12.15;6.90;;;;;;;;;;5053783;28;20032;-66
2023/10/17 15:46:16;;;;;;;9.82;6.05;;;;;;;;;;5053413;28;20416;-68
2023/10/17 15:48:43;;;;;;;11.68;6.28;;;;;;;;;;5052958;28;20021;-67
2023/10/17 15:51:10;;;;;;;7.88;6.13;;;;;;;;;;5066272;28;20025;-67
2023/10/17 15:53:37;;;;;;;9.90;6.25;;;;;;;;;;5045573;28;20033;-66
2023/10/17 15:56:04;;;;;;;9.18;5.90;;;;;;;;;;5054522;28;20444;-67
2023/10/17 15:58:32;;;;;;;8.57;5.63;;;;;;;;;;5049411;28;20091;-66
2023/10/17 16:01:01;;;;;;;9.00;6.05;;;;;;;;;;5049003;28;20032;-66
2023/10/17 16:03:29;;;;;;;8.73;6.13;;;;;;;;;;5046070;28;20047;-66
2023/10/17 16:05:55;;;;;;;7.28;5.78;;;;;;;;;;5060371;28;20029;-70
2023/10/17 16:08:23;;;;;;;7.68;5.70;;;;;;;;;;5053041;28;20028;-70
2023/10/17 16:10:56;;;;;;;11.40;6.15;;;;;;;;;;5050631;28;20087;-66
2023/10/17 16:13:23;;;;;;;8.40;5.82;;;11.10;99.90;;;;;;5041074;28;20374;-65
2023/10/17 16:15:55;;;;;;;11.80;6.18;;;11.00;99.90;;;;;;5060307;28;20036;-66
2023/10/17 16:18:20;;;;;;;9.00;6.45;;;10.80;99.90;;;;;;5056851;28;20075;-65
2023/10/17 16:20:46;;;;;;;9.55;5.75;;;10.70;99.90;;;;;;5055099;28;20477;-66
2023/10/17 16:23:12;;;;;;;8.40;4.85;;;10.50;99.90;;;;;;5047709;28;20038;-66
2023/10/17 16:25:39;;;;;;;10.25;5.85;;;10.40;99.90;;;;;;5063390;28;20035;-65
2023/10/17 16:28:05;;;;;;;8.30;5.70;;;10.30;99.90;;;;;;5059854;28;20048;-66
2023/10/17 16:30:31;;;;;;;8.43;6.13;;;10.20;99.90;;;;;;5057600;28;20156;-68
2023/10/17 16:32:57;;;;;;;10.70;6.05;;;10.20;99.90;;;;;;5054291;28;20051;-67